createdAt,value
2022-12-31T00:00:16.896Z,75.86237505057613
2022-12-31T00:05:12.964Z,76.03939629753026
2022-12-31T00:10:09.231Z,76.39271212731123
2022-12-31T00:15:05.487Z,75.90000343084323
2022-12-31T00:20:01.717Z,75.35037046242546
2022-12-31T00:24:58.017Z,74.68897470761644
2022-12-31T00:29:55.066Z,74.88926233247548
2022-12-31T00:34:53.511Z,74.56666277368294
2022-12-31T00:39:49.733Z,73.54022997396393
2022-12-31T00:44:46.050Z,73.02689240157892
2022-12-31T00:49:42.301Z,73.15806441305661
2022-12-31T00:54:38.534Z,72.68404489762294
2022-12-31T00:59:34.812Z,73.65203190353795
2022-12-31T01:04:32.073Z,72.53411444955627
2022-12-31T01:09:28.313Z,74.28810268143708
2022-12-31T01:14:25.624Z,73.44853515905248
2022-12-31T01:19:23.853Z,69.43438512791117
2022-12-31T01:24:20.120Z,67.79387803998478
2022-12-31T01:29:16.351Z,70.76148554634626
2022-12-31T01:34:12.596Z,72.15297399452308
2022-12-31T01:39:08.895Z,68.26333640462802
2022-12-31T01:44:22.128Z,70.27378454875813
2022-12-31T01:49:22.310Z,70.11785367162572
2022-12-31T01:54:19.592Z,71.56312273899701
2022-12-31T01:59:18.821Z,70.77063806988897
2022-12-31T02:04:16.114Z,69.26000917123815
2022-12-31T02:09:11.364Z,67.8989815876582
2022-12-31T02:14:09.628Z,67.92103555036935
2022-12-31T02:19:15.844Z,69.66295181542549
2022-12-31T02:24:34.101Z,69.93487627655178
2022-12-31T02:29:46.281Z,68.17576242665479
2022-12-31T02:34:47.501Z,67.940155681321
2022-12-31T02:39:44.795Z,68.22709756409039
2022-12-31T02:44:46.042Z,68.41852321765049
2022-12-31T02:49:53.234Z,69.46410616979321
2022-12-31T02:54:58.552Z,68.66250719620477
2022-12-31T02:59:58.720Z,69.37032522413949
2022-12-31T03:04:55.015Z,70.38286633539421
2022-12-31T03:09:50.268Z,68.59451294170177
2022-12-31T03:14:46.531Z,68.77017195809469
2022-12-31T03:19:42.778Z,69.60349304263767
2022-12-31T03:24:39.057Z,68.56338184586971
2022-12-31T03:29:35.292Z,68.13952781738237
2022-12-31T03:34:31.558Z,67.74715192164057
2022-12-31T03:39:27.812Z,68.19933094309786
2022-12-31T03:44:24.099Z,68.3783948005941
2022-12-31T03:49:20.376Z,68.3582982931161
2022-12-31T03:54:16.623Z,67.85355136576788
2022-12-31T03:59:12.896Z,67.4345360475128
2022-12-31T04:04:09.144Z,68.13351925301595
2022-12-31T04:09:05.387Z,68.6257249825925
2022-12-31T04:14:05.635Z,68.90484952479372
2022-12-31T04:19:01.893Z,68.47530509182751
2022-12-31T04:23:58.147Z,67.70554668968524
2022-12-31T04:28:54.430Z,69.10414204105129
2022-12-31T04:33:50.666Z,69.07298876778442
2022-12-31T04:38:46.944Z,68.14332140818293
2022-12-31T04:43:44.188Z,70.0868827257321
2022-12-31T04:48:40.465Z,69.23502501457554
2022-12-31T04:53:36.677Z,68.76926846191378
2022-12-31T04:58:32.969Z,68.72422833662323
2022-12-31T05:03:29.230Z,69.25117089860929
2022-12-31T05:08:25.495Z,69.33303020821215
2022-12-31T05:13:21.719Z,68.53673407187837
2022-12-31T05:18:17.967Z,69.29897397254685
2022-12-31T05:23:14.244Z,69.94975176929002
2022-12-31T05:28:10.573Z,68.92572837140268
2022-12-31T05:33:06.803Z,69.16151592315525
2022-12-31T05:38:03.087Z,70.83283673197748
2022-12-31T05:42:59.330Z,70.26216002271221
2022-12-31T05:47:54.571Z,70.60661308099834
2022-12-31T05:52:50.828Z,70.51634570576047
2022-12-31T05:57:47.115Z,70.02808424841224
2022-12-31T06:02:43.371Z,69.9720584305215
2022-12-31T06:07:39.616Z,70.6220208187864
2022-12-31T06:12:35.842Z,70.22342734760592
2022-12-31T06:17:33.096Z,71.15194258657739
2022-12-31T06:22:29.369Z,70.14362507852559
2022-12-31T06:27:25.689Z,69.06113276683682
2022-12-31T06:32:21.875Z,69.30652885561372
2022-12-31T06:37:18.164Z,68.58085806754728
2022-12-31T06:42:14.414Z,68.22648227372969
2022-12-31T06:47:09.652Z,69.30260525736865
2022-12-31T06:52:05.948Z,68.84293124193465
2022-12-31T06:57:02.235Z,70.05422730942351
2022-12-31T07:02:09.458Z,67.46971810162216
2022-12-31T07:07:13.687Z,66.00515148244081
2022-12-31T07:12:19.886Z,67.75383691393016
2022-12-31T07:17:26.188Z,68.77664076017807
2022-12-31T07:22:24.401Z,68.51016605603422
2022-12-31T07:27:33.671Z,69.66841188985045
2022-12-31T07:32:40.817Z,69.89023975245985
2022-12-31T07:37:42.083Z,69.46748903039092
2022-12-31T07:42:45.324Z,69.67906234624351
2022-12-31T07:47:47.824Z,68.7577010130194
2022-12-31T07:52:44.858Z,68.49493007943353
2022-12-31T07:57:45.097Z,68.84909801196575
2022-12-31T08:02:57.409Z,69.08810163933511
2022-12-31T08:08:02.506Z,69.38325897233223
2022-12-31T08:13:04.783Z,69.15372441953346
2022-12-31T08:18:02.300Z,69.84514620011979
2022-12-31T08:23:09.301Z,69.18328658202704
2022-12-31T08:28:14.519Z,69.63016274203025
2022-12-31T08:33:18.778Z,69.41104441046507
2022-12-31T08:38:21.063Z,69.38290146735562
2022-12-31T08:43:30.294Z,69.12733661201682
2022-12-31T08:48:37.446Z,65.76518789356174
2022-12-31T08:53:33.695Z,66.76117185153434
2022-12-31T08:58:41.550Z,66.66425208579847
2022-12-31T09:03:53.228Z,66.6359326042358
2022-12-31T09:08:57.443Z,65.72924319874787
2022-12-31T09:14:02.671Z,66.49323120855675
2022-12-31T09:18:58.914Z,65.59339699494109
2022-12-31T09:23:55.168Z,65.08035181932729
2022-12-31T09:29:01.439Z,64.0466380891325
2022-12-31T09:34:06.695Z,63.555700217394005
2022-12-31T09:39:11.949Z,63.57895404190608
2022-12-31T09:44:22.125Z,63.39272635753158
2022-12-31T09:49:32.423Z,61.54371948075401
2022-12-31T09:54:44.579Z,62.4815713849834
2022-12-31T09:59:47.796Z,62.275942408247495
2022-12-31T10:04:56.541Z,63.173861228238614
2022-12-31T10:10:07.244Z,62.579115618595836
2022-12-31T10:15:23.485Z,60.58630978944107
2022-12-31T10:20:43.350Z,58.67629177751587
2022-12-31T10:25:59.621Z,57.725435994518925
2022-12-31T10:31:03.257Z,56.99274919574063
2022-12-31T10:36:04.350Z,55.36147934523891
2022-12-31T10:41:18.861Z,55.26602922042374
2022-12-31T10:46:36.798Z,54.192968556442175
2022-12-31T10:51:52.973Z,54.13323923740757
2022-12-31T11:02:16.727Z,53.32172127080455
2022-12-31T11:07:28.649Z,53.94513191228241
2022-12-31T11:12:34.875Z,54.69116567498347
2022-12-31T11:17:44.555Z,55.086751870125696
2022-12-31T11:22:56.340Z,56.5352434933466
2022-12-31T11:28:02.562Z,54.50668600224758
2022-12-31T11:33:10.805Z,55.255551998501716
2022-12-31T11:38:18.031Z,55.47981633497382
2022-12-31T11:43:22.272Z,55.32687427126676
2022-12-31T11:48:32.018Z,53.724239418986144
2022-12-31T11:53:42.708Z,53.4898970828398
2022-12-31T11:58:46.942Z,53.18134783886513
2022-12-31T12:03:44.289Z,53.4760886051558
2022-12-31T12:08:42.472Z,52.109863531078226
2022-12-31T12:13:43.686Z,51.996386941623456
2022-12-31T12:18:47.345Z,52.27514499336331
2022-12-31T12:23:54.171Z,51.40918432078499
2022-12-31T12:28:52.457Z,50.52890587775691
2022-12-31T12:33:50.778Z,49.279241057160256
2022-12-31T12:38:53.939Z,49.04950029715683
2022-12-31T12:43:58.168Z,51.98763482648112
2022-12-31T12:49:02.464Z,55.68122448048022
2022-12-31T12:54:13.682Z,55.87608536833278
2022-12-31T12:59:26.891Z,57.26596901446129
2022-12-31T13:04:42.228Z,58.934195738899476
2022-12-31T13:09:51.287Z,62.392493260843665
2022-12-31T13:14:58.785Z,63.604853670584184
2022-12-31T13:20:02.781Z,63.89784888264835
2022-12-31T13:25:14.037Z,64.37679745045494
2022-12-31T13:30:14.260Z,65.32077883679379
2022-12-31T13:35:21.515Z,65.40879511450167
2022-12-31T13:40:20.715Z,65.49900722183219
2022-12-31T13:45:22.972Z,65.30333426849188
2022-12-31T13:50:23.314Z,65.71179320944896
2022-12-31T13:55:28.445Z,64.76032896277566
2022-12-31T14:00:32.735Z,69.2298404307801
2022-12-31T14:05:33.113Z,63.13450930576076
2022-12-31T14:10:35.176Z,64.53843233982494
2022-12-31T14:20:51.301Z,64.79596217272076
2022-12-31T14:25:54.896Z,61.599999748994875
2022-12-31T14:30:56.191Z,56.87598068016956
2022-12-31T14:36:10.805Z,55.7030155704145
2022-12-31T14:41:23.639Z,59.82124795539773
2022-12-31T14:46:28.820Z,59.241712726804934
2022-12-31T14:51:27.080Z,58.819335540499154
2022-12-31T14:56:31.336Z,61.26696468758817
2022-12-31T15:01:28.792Z,64.83065104485989
2022-12-31T15:06:34.091Z,67.19400777627037
2022-12-31T15:11:45.018Z,68.07023687542325
2022-12-31T15:16:55.370Z,69.11360487488415
2022-12-31T15:22:06.074Z,70.3395515790654
2022-12-31T15:27:10.167Z,70.940715166538
2022-12-31T15:32:12.997Z,71.70637657995687
2022-12-31T15:37:19.570Z,73.20501276226422
2022-12-31T15:42:37.798Z,73.71959498281372
2022-12-31T15:47:36.652Z,74.77756630453685
2022-12-31T15:52:38.867Z,75.8017409486245
2022-12-31T15:57:37.282Z,75.13031439297417
2022-12-31T16:02:33.628Z,75.4334070990532
2022-12-31T16:07:31.668Z,75.8832177643419
2022-12-31T16:12:44.366Z,75.42795627128883
2022-12-31T16:17:44.115Z,73.63238918560896
2022-12-31T16:27:52.686Z,72.72492150861596
2022-12-31T16:32:50.888Z,72.63401759165703
2022-12-31T16:37:48.137Z,72.33640417904341
2022-12-31T16:42:49.390Z,73.05637608679224
2022-12-31T16:47:49.066Z,73.65579369724362
2022-12-31T16:52:58.904Z,73.84665278993613
2022-12-31T16:58:04.043Z,73.11900396078171
2022-12-31T17:03:07.626Z,72.87854343629863
2022-12-31T17:08:20.542Z,72.89942044728161
2022-12-31T17:13:29.150Z,72.61136302788691
2022-12-31T17:18:30.584Z,72.93191806185347
2022-12-31T17:23:32.271Z,74.75069293045428
2022-12-31T17:28:37.498Z,75.14033756618716
2022-12-31T17:33:33.775Z,75.37029920221555
2022-12-31T17:38:35.976Z,74.78199517017114
2022-12-31T17:43:35.434Z,74.72472977624555
2022-12-31T17:48:31.534Z,74.33825484461902
2022-12-31T17:53:29.817Z,74.56194790912937
2022-12-31T17:58:30.135Z,74.23450104373539
2022-12-31T18:03:26.802Z,73.84892030829815
2022-12-31T18:08:23.545Z,73.98979158015376
2022-12-31T18:13:22.849Z,75.32073050806954
2022-12-31T18:18:24.383Z,75.32211058792828
2022-12-31T18:23:22.559Z,74.36956131519018
2022-12-31T18:28:19.564Z,74.45180080739277
2022-12-31T18:33:16.807Z,74.03689471921507
2022-12-31T18:38:14.090Z,74.56266530873079
2022-12-31T18:43:14.352Z,74.2032697783912
2022-12-31T18:48:16.230Z,74.30361446888016
2022-12-31T18:58:22.626Z,74.31667726511783
2022-12-31T19:03:21.166Z,75.26830815321127
2022-12-31T19:08:18.545Z,72.49471273761718
2022-12-31T19:13:15.857Z,73.97462378457423
2022-12-31T19:18:17.092Z,73.61599734492835
2022-12-31T19:23:15.289Z,71.69401921706782
2022-12-31T19:28:14.598Z,72.03675640113347
2022-12-31T19:33:10.855Z,71.20654975137018
2022-12-31T19:38:12.113Z,70.80836149360616
2022-12-31T19:43:13.816Z,72.16046186156638
2022-12-31T19:48:11.591Z,71.46617941237572
2022-12-31T19:53:09.811Z,71.38147326038082
2022-12-31T19:58:08.064Z,71.97803371239358
2022-12-31T20:03:04.455Z,73.19019300148072
2022-12-31T20:08:00.651Z,75.06793595507105
2022-12-31T20:12:56.880Z,73.50723683998606
2022-12-31T20:17:57.144Z,72.8909632036584
2022-12-31T20:22:57.393Z,71.38421397687799
2022-12-31T20:27:53.645Z,73.69118048451399
2022-12-31T20:32:50.923Z,76.76454216339387
2022-12-31T20:37:49.143Z,76.40670965787875
2022-12-31T20:42:45.368Z,73.81453044945285
2022-12-31T20:47:41.695Z,76.3850633630411
2022-12-31T20:52:37.919Z,75.22073347800192
2022-12-31T20:57:34.270Z,72.76129954946697
2022-12-31T21:02:41.599Z,71.68872150985965
2022-12-31T21:07:31.897Z,71.59416335019866
2022-12-31T21:12:27.931Z,71.84018192838832
2022-12-31T21:17:24.203Z,71.54713125694089
2022-12-31T21:22:20.476Z,70.6417937869927
2022-12-31T21:27:17.709Z,70.77476425493914
2022-12-31T21:32:14.270Z,71.11275055266765
2022-12-31T21:37:10.273Z,71.03845640614536
2022-12-31T21:42:06.500Z,70.68669480060025
2022-12-31T21:47:33.756Z,69.61438735596239
2022-12-31T21:52:04.109Z,69.29485760091352
2022-12-31T21:57:00.317Z,69.05699185373243
2022-12-31T22:01:57.646Z,69.7064027894302
2022-12-31T22:06:54.756Z,74.00349280776449
2022-12-31T22:11:52.249Z,74.78882475585542
2022-12-31T22:16:49.290Z,75.83603420119208
2022-12-31T22:21:46.709Z,76.81010583530121
2022-12-31T22:26:46.826Z,78.33269389482821
2022-12-31T22:31:45.130Z,77.85550963576387
2022-12-31T22:36:43.273Z,78.38895674290305
2022-12-31T22:41:40.572Z,74.38709123813065
2022-12-31T22:46:40.898Z,71.6771161225047
2022-12-31T22:51:56.255Z,71.77231838263896
2022-12-31T23:01:48.582Z,71.01996526807072
2022-12-31T23:06:46.526Z,71.12038391327887
2022-12-31T23:11:43.173Z,70.83193707940768
2022-12-31T23:16:43.755Z,71.6223797119413
2022-12-31T23:21:41.571Z,70.89419197195018
2022-12-31T23:26:38.727Z,70.76071065002147
2022-12-31T23:31:39.144Z,70.64348022107279
2022-12-31T23:36:35.304Z,70.10376956245459
2022-12-31T23:41:32.572Z,70.27224406481037
2022-12-31T23:46:29.064Z,70.9129710118624
2022-12-31T23:51:25.126Z,69.83446619817815
2022-12-31T23:56:24.072Z,70.38158677574651
